Prater, Kentucky
Current Conditions -  °F | °C
As of 4:10 AM on Friday 19 Dec 2014 (Local Time) from KSYM Reporting Station
Scattered Clouds Scattered Clouds  
Wind Chill: 27°   Ceiling: Unl
Heat Index: 27°   Visibility: 10mi
Dew Point: 21°   Wind: 0mph
Humidity: 80%   Direction: NA
Pressure: 30.25"   Gusts: NA
Location:  38.3543°N, 83.1837°W
Report Text: KSYM 190910Z AUTO 00000KT 10SM FEW019 SCT028 M03/M06 A3025 RMK AO2
Loading
Personal Weather Stations






























Interactive Weather Map New forecast layout! Learn more

10-Day Weather Forecast

Advertisements
Track Severe Weather on mobile